sensor_id;sensor_type;location;lat;lon;timestamp;temperature;humidity
55830;DHT22;41759;53.330;6.002;2024-03-22T00:00:16;10.10;99.90
55830;DHT22;41759;53.330;6.002;2024-03-22T00:02:41;10.10;99.90
55830;DHT22;41759;53.330;6.002;2024-03-22T00:05:07;10.10;99.90
55830;DHT22;41759;53.330;6.002;2024-03-22T00:07:33;10.10;99.90
55830;DHT22;41759;53.330;6.002;2024-03-22T00:09:59;10.10;99.90
55830;DHT22;41759;53.330;6.002;2024-03-22T00:12:25;10.10;99.90
55830;DHT22;41759;53.330;6.002;2024-03-22T00:14:52;10.10;99.90
55830;DHT22;41759;53.330;6.002;2024-03-22T00:17:20;10.10;99.90
55830;DHT22;41759;53.330;6.002;2024-03-22T00:19:46;10.20;99.90
55830;DHT22;41759;53.330;6.002;2024-03-22T00:22:11;10.20;99.90
55830;DHT22;41759;53.330;6.002;2024-03-22T00:24:37;10.20;99.90
55830;DHT22;41759;53.330;6.002;2024-03-22T00:27:03;10.20;99.90
55830;DHT22;41759;53.330;6.002;2024-03-22T00:29:28;10.20;99.90
55830;DHT22;41759;53.330;6.002;2024-03-22T00:31:54;10.20;99.90
55830;DHT22;41759;53.330;6.002;2024-03-22T00:34:20;10.20;99.90
55830;DHT22;41759;53.330;6.002;2024-03-22T00:36:46;10.20;99.90
55830;DHT22;41759;53.330;6.002;2024-03-22T00:39:11;10.20;99.90
55830;DHT22;41759;53.330;6.002;2024-03-22T00:41:38;10.20;99.90
55830;DHT22;41759;53.330;6.002;2024-03-22T00:44:04;10.20;99.90
55830;DHT22;41759;53.330;6.002;2024-03-22T00:46:29;10.30;99.90
55830;DHT22;41759;53.330;6.002;2024-03-22T00:48:55;10.30;99.90
55830;DHT22;41759;53.330;6.002;2024-03-22T00:51:21;10.30;99.90
55830;DHT22;41759;53.330;6.002;2024-03-22T00:53:47;9.50;99.90
55830;DHT22;41759;53.330;6.002;2024-03-22T00:56:13;10.40;99.90
55830;DHT22;41759;53.330;6.002;2024-03-22T00:58:39;10.40;99.90
55830;DHT22;41759;53.330;6.002;2024-03-22T01:01:04;10.40;99.90
55830;DHT22;41759;53.330;6.002;2024-03-22T01:03:30;10.50;99.90
55830;DHT22;41759;53.330;6.002;2024-03-22T01:05:55;10.40;99.90
55830;DHT22;41759;53.330;6.002;2024-03-22T01:08:22;10.40;99.90
55830;DHT22;41759;53.330;6.002;2024-03-22T01:10:48;10.50;99.90
55830;DHT22;41759;53.330;6.002;2024-03-22T01:13:15;10.60;99.90
55830;DHT22;41759;53.330;6.002;2024-03-22T01:30:25;10.50;99.90
55830;DHT22;41759;53.330;6.002;2024-03-22T01:32:54;10.50;99.90
55830;DHT22;41759;53.330;6.002;2024-03-22T01:35:20;10.60;99.90
55830;DHT22;41759;53.330;6.002;2024-03-22T01:37:46;10.60;99.90
55830;DHT22;41759;53.330;6.002;2024-03-22T01:40:13;10.80;99.90
55830;DHT22;41759;53.330;6.002;2024-03-22T01:42:38;10.50;99.90
55830;DHT22;41759;53.330;6.002;2024-03-22T01:45:05;10.60;99.90
55830;DHT22;41759;53.330;6.002;2024-03-22T01:47:31;10.50;99.90
55830;DHT22;41759;53.330;6.002;2024-03-22T01:49:57;10.60;99.90
55830;DHT22;41759;53.330;6.002;2024-03-22T01:52:23;10.60;99.90
55830;DHT22;41759;53.330;6.002;2024-03-22T01:54:50;10.60;99.90
55830;DHT22;41759;53.330;6.002;2024-03-22T01:57:15;11.50;99.90
55830;DHT22;41759;53.330;6.002;2024-03-22T01:59:41;10.60;99.90
55830;DHT22;41759;53.330;6.002;2024-03-22T02:02:07;10.60;99.90
55830;DHT22;41759;53.330;6.002;2024-03-22T02:04:33;10.60;99.90
55830;DHT22;41759;53.330;6.002;2024-03-22T02:06:59;10.70;99.90
55830;DHT22;41759;53.330;6.002;2024-03-22T02:09:25;10.60;99.90
55830;DHT22;41759;53.330;6.002;2024-03-22T02:11:51;10.70;99.90
55830;DHT22;41759;53.330;6.002;2024-03-22T02:14:17;10.40;99.90
55830;DHT22;41759;53.330;6.002;2024-03-22T02:16:42;10.60;99.90
55830;DHT22;41759;53.330;6.002;2024-03-22T02:19:08;10.60;99.90
55830;DHT22;41759;53.330;6.002;2024-03-22T02:21:34;10.60;99.90
55830;DHT22;41759;53.330;6.002;2024-03-22T02:24:00;10.70;99.90
55830;DHT22;41759;53.330;6.002;2024-03-22T02:26:26;10.70;99.90
55830;DHT22;41759;53.330;6.002;2024-03-22T02:28:51;10.70;99.90
55830;DHT22;41759;53.330;6.002;2024-03-22T02:31:17;10.60;99.90
55830;DHT22;41759;53.330;6.002;2024-03-22T02:33:43;10.60;99.90
55830;DHT22;41759;53.330;6.002;2024-03-22T02:36:09;11.30;99.90
55830;DHT22;41759;53.330;6.002;2024-03-22T02:38:35;10.80;99.90
55830;DHT22;41759;53.330;6.002;2024-03-22T02:41:00;10.60;99.90
55830;DHT22;41759;53.330;6.002;2024-03-22T02:43:26;10.70;99.90
55830;DHT22;41759;53.330;6.002;2024-03-22T02:45:52;10.60;99.90
55830;DHT22;41759;53.330;6.002;2024-03-22T02:48:17;10.60;99.90
55830;DHT22;41759;53.330;6.002;2024-03-22T02:50:43;11.10;99.90
55830;DHT22;41759;53.330;6.002;2024-03-22T02:53:09;10.70;99.90
55830;DHT22;41759;53.330;6.002;2024-03-22T02:55:38;10.70;99.90
55830;DHT22;41759;53.330;6.002;2024-03-22T02:58:05;10.60;99.90
55830;DHT22;41759;53.330;6.002;2024-03-22T03:00:31;10.60;99.90
55830;DHT22;41759;53.330;6.002;2024-03-22T03:02:58;10.60;99.90
55830;DHT22;41759;53.330;6.002;2024-03-22T03:05:24;10.60;99.90
55830;DHT22;41759;53.330;6.002;2024-03-22T03:07:50;10.60;99.90
55830;DHT22;41759;53.330;6.002;2024-03-22T03:10:16;11.70;99.90
55830;DHT22;41759;53.330;6.002;2024-03-22T03:12:42;10.60;99.90
55830;DHT22;41759;53.330;6.002;2024-03-22T03:15:08;10.60;99.90
55830;DHT22;41759;53.330;6.002;2024-03-22T03:17:33;10.60;99.90
55830;DHT22;41759;53.330;6.002;2024-03-22T03:19:59;10.60;99.90
55830;DHT22;41759;53.330;6.002;2024-03-22T03:22:25;10.60;99.90
55830;DHT22;41759;53.330;6.002;2024-03-22T03:24:50;10.60;99.90
55830;DHT22;41759;53.330;6.002;2024-03-22T03:27:16;12.00;99.90
55830;DHT22;41759;53.330;6.002;2024-03-22T03:29:42;11.10;99.90
55830;DHT22;41759;53.330;6.002;2024-03-22T03:32:07;10.90;99.90
55830;DHT22;41759;53.330;6.002;2024-03-22T03:34:33;10.60;99.90
55830;DHT22;41759;53.330;6.002;2024-03-22T03:36:59;10.60;99.90
55830;DHT22;41759;53.330;6.002;2024-03-22T03:39:27;10.60;99.90
55830;DHT22;41759;53.330;6.002;2024-03-22T03:41:54;10.60;99.90
55830;DHT22;41759;53.330;6.002;2024-03-22T03:44:20;10.60;99.90
55830;DHT22;41759;53.330;6.002;2024-03-22T03:46:46;10.60;99.90
55830;DHT22;41759;53.330;6.002;2024-03-22T03:49:11;11.20;99.90
55830;DHT22;41759;53.330;6.002;2024-03-22T03:51:39;10.60;99.90
55830;DHT22;41759;53.330;6.002;2024-03-22T03:54:05;10.60;99.90
55830;DHT22;41759;53.330;6.002;2024-03-22T03:56:31;10.60;99.90
55830;DHT22;41759;53.330;6.002;2024-03-22T03:58:57;11.80;99.90
55830;DHT22;41759;53.330;6.002;2024-03-22T04:01:23;10.60;99.90
55830;DHT22;41759;53.330;6.002;2024-03-22T04:03:49;10.60;99.90
55830;DHT22;41759;53.330;6.002;2024-03-22T04:06:14;10.60;99.90
55830;DHT22;41759;53.330;6.002;2024-03-22T04:08:40;10.60;99.90
55830;DHT22;41759;53.330;6.002;2024-03-22T04:11:06;10.60;99.90
55830;DHT22;41759;53.330;6.002;2024-03-22T04:13:31;10.60;99.90
55830;DHT22;41759;53.330;6.002;2024-03-22T04:15:59;10.60;99.90
55830;DHT22;41759;53.330;6.002;2024-03-22T04:18:25;10.60;99.90
55830;DHT22;41759;53.330;6.002;2024-03-22T04:20:58;10.50;99.90
55830;DHT22;41759;53.330;6.002;2024-03-22T04:23:25;10.80;99.90
55830;DHT22;41759;53.330;6.002;2024-03-22T04:25:57;10.50;99.90
55830;DHT22;41759;53.330;6.002;2024-03-22T04:28:24;10.50;99.90
55830;DHT22;41759;53.330;6.002;2024-03-22T04:33:26;10.50;99.90
55830;DHT22;41759;53.330;6.002;2024-03-22T04:35:52;10.60;99.90
55830;DHT22;41759;53.330;6.002;2024-03-22T04:38:17;10.60;99.90
55830;DHT22;41759;53.330;6.002;2024-03-22T04:40:43;10.50;99.90
55830;DHT22;41759;53.330;6.002;2024-03-22T04:43:09;10.50;99.90
55830;DHT22;41759;53.330;6.002;2024-03-22T04:45:34;11.70;99.90
55830;DHT22;41759;53.330;6.002;2024-03-22T04:48:04;11.40;99.90
55830;DHT22;41759;53.330;6.002;2024-03-22T04:50:30;10.40;99.90
55830;DHT22;41759;53.330;6.002;2024-03-22T04:52:56;10.40;99.90
55830;DHT22;41759;53.330;6.002;2024-03-22T04:55:22;10.40;99.90
55830;DHT22;41759;53.330;6.002;2024-03-22T04:57:48;10.90;99.90
55830;DHT22;41759;53.330;6.002;2024-03-22T05:00:14;10.40;99.90
55830;DHT22;41759;53.330;6.002;2024-03-22T05:02:40;10.40;99.90
55830;DHT22;41759;53.330;6.002;2024-03-22T05:05:06;10.40;99.90
55830;DHT22;41759;53.330;6.002;2024-03-22T05:07:33;10.30;99.90
55830;DHT22;41759;53.330;6.002;2024-03-22T05:09:58;10.30;99.90
55830;DHT22;41759;53.330;6.002;2024-03-22T05:12:24;10.30;99.90
55830;DHT22;41759;53.330;6.002;2024-03-22T05:14:50;10.60;99.90
55830;DHT22;41759;53.330;6.002;2024-03-22T05:17:15;9.70;99.90
55830;DHT22;41759;53.330;6.002;2024-03-22T05:19:41;10.20;99.90
55830;DHT22;41759;53.330;6.002;2024-03-22T05:22:06;10.20;99.90
55830;DHT22;41759;53.330;6.002;2024-03-22T05:24:32;10.20;99.90
55830;DHT22;41759;53.330;6.002;2024-03-22T05:26:58;10.20;99.90
55830;DHT22;41759;53.330;6.002;2024-03-22T05:29:24;10.20;99.90
55830;DHT22;41759;53.330;6.002;2024-03-22T05:31:50;10.20;99.90
55830;DHT22;41759;53.330;6.002;2024-03-22T05:34:19;10.20;99.90
55830;DHT22;41759;53.330;6.002;2024-03-22T05:36:48;10.10;99.90
55830;DHT22;41759;53.330;6.002;2024-03-22T05:39:14;10.10;99.90
55830;DHT22;41759;53.330;6.002;2024-03-22T05:41:40;10.30;99.90
55830;DHT22;41759;53.330;6.002;2024-03-22T05:44:07;10.10;99.90
55830;DHT22;41759;53.330;6.002;2024-03-22T05:46:32;10.10;99.90
55830;DHT22;41759;53.330;6.002;2024-03-22T05:48:58;10.50;99.90
55830;DHT22;41759;53.330;6.002;2024-03-22T05:51:25;10.90;99.90
55830;DHT22;41759;53.330;6.002;2024-03-22T05:53:50;10.00;99.90
55830;DHT22;41759;53.330;6.002;2024-03-22T05:56:16;10.20;99.90
55830;DHT22;41759;53.330;6.002;2024-03-22T05:58:42;9.70;99.90
55830;DHT22;41759;53.330;6.002;2024-03-22T06:01:07;10.00;99.90
55830;DHT22;41759;53.330;6.002;2024-03-22T06:03:33;10.00;99.90
55830;DHT22;41759;53.330;6.002;2024-03-22T06:06:00;9.90;99.90
55830;DHT22;41759;53.330;6.002;2024-03-22T06:08:28;9.90;99.90
55830;DHT22;41759;53.330;6.002;2024-03-22T06:10:55;9.90;99.90
55830;DHT22;41759;53.330;6.002;2024-03-22T06:13:24;9.90;99.90
55830;DHT22;41759;53.330;6.002;2024-03-22T06:15:50;9.90;99.90
55830;DHT22;41759;53.330;6.002;2024-03-22T06:18:16;10.60;99.90
55830;DHT22;41759;53.330;6.002;2024-03-22T06:20:42;9.80;99.90
55830;DHT22;41759;53.330;6.002;2024-03-22T06:23:08;9.90;99.90
55830;DHT22;41759;53.330;6.002;2024-03-22T06:25:34;10.10;99.90
55830;DHT22;41759;53.330;6.002;2024-03-22T06:28:00;9.80;99.90
55830;DHT22;41759;53.330;6.002;2024-03-22T06:30:26;9.90;99.90
55830;DHT22;41759;53.330;6.002;2024-03-22T06:32:53;9.80;99.90
55830;DHT22;41759;53.330;6.002;2024-03-22T06:35:18;10.20;99.90
55830;DHT22;41759;53.330;6.002;2024-03-22T06:37:44;9.80;99.90
55830;DHT22;41759;53.330;6.002;2024-03-22T06:40:11;9.80;99.90
55830;DHT22;41759;53.330;6.002;2024-03-22T06:42:37;9.80;99.90
55830;DHT22;41759;53.330;6.002;2024-03-22T06:45:03;9.80;99.90
55830;DHT22;41759;53.330;6.002;2024-03-22T06:47:28;9.80;99.90
55830;DHT22;41759;53.330;6.002;2024-03-22T06:49:54;9.70;99.90
55830;DHT22;41759;53.330;6.002;2024-03-22T06:52:20;9.90;99.90
55830;DHT22;41759;53.330;6.002;2024-03-22T06:54:46;9.70;99.90
55830;DHT22;41759;53.330;6.002;2024-03-22T06:57:12;9.80;99.90
55830;DHT22;41759;53.330;6.002;2024-03-22T06:59:37;9.70;99.90
55830;DHT22;41759;53.330;6.002;2024-03-22T07:02:03;9.70;99.90
55830;DHT22;41759;53.330;6.002;2024-03-22T07:04:29;9.80;99.90
55830;DHT22;41759;53.330;6.002;2024-03-22T07:06:55;9.70;99.90
55830;DHT22;41759;53.330;6.002;2024-03-22T07:09:21;9.80;99.90
55830;DHT22;41759;53.330;6.002;2024-03-22T07:11:48;9.80;99.90
55830;DHT22;41759;53.330;6.002;2024-03-22T07:14:13;9.80;99.90
55830;DHT22;41759;53.330;6.002;2024-03-22T07:16:39;9.70;99.90
55830;DHT22;41759;53.330;6.002;2024-03-22T07:19:05;9.80;99.90
55830;DHT22;41759;53.330;6.002;2024-03-22T07:21:31;9.80;99.90
55830;DHT22;41759;53.330;6.002;2024-03-22T07:23:57;9.80;99.90
55830;DHT22;41759;53.330;6.002;2024-03-22T07:26:23;9.80;99.90
55830;DHT22;41759;53.330;6.002;2024-03-22T07:28:48;9.80;99.90
55830;DHT22;41759;53.330;6.002;2024-03-22T07:31:14;9.70;99.90
55830;DHT22;41759;53.330;6.002;2024-03-22T07:33:40;9.70;99.90
55830;DHT22;41759;53.330;6.002;2024-03-22T07:36:06;9.70;99.90
55830;DHT22;41759;53.330;6.002;2024-03-22T07:38:32;9.70;99.90
55830;DHT22;41759;53.330;6.002;2024-03-22T07:40:58;9.80;99.90
55830;DHT22;41759;53.330;6.002;2024-03-22T07:43:24;9.70;99.90
55830;DHT22;41759;53.330;6.002;2024-03-22T07:45:49;9.70;99.90
55830;DHT22;41759;53.330;6.002;2024-03-22T07:48:15;9.70;99.90
55830;DHT22;41759;53.330;6.002;2024-03-22T07:50:41;9.70;99.90
55830;DHT22;41759;53.330;6.002;2024-03-22T07:53:07;9.70;99.90
55830;DHT22;41759;53.330;6.002;2024-03-22T07:55:33;9.70;99.90
55830;DHT22;41759;53.330;6.002;2024-03-22T07:57:59;10.50;99.90
55830;DHT22;41759;53.330;6.002;2024-03-22T08:00:25;9.70;99.90
55830;DHT22;41759;53.330;6.002;2024-03-22T08:02:53;9.70;99.90
55830;DHT22;41759;53.330;6.002;2024-03-22T08:05:19;9.70;99.90
55830;DHT22;41759;53.330;6.002;2024-03-22T08:07:45;9.80;99.90
55830;DHT22;41759;53.330;6.002;2024-03-22T08:10:11;9.80;99.90
55830;DHT22;41759;53.330;6.002;2024-03-22T08:12:36;9.80;99.90
55830;DHT22;41759;53.330;6.002;2024-03-22T08:15:02;9.80;99.90
55830;DHT22;41759;53.330;6.002;2024-03-22T08:17:28;9.80;99.90
55830;DHT22;41759;53.330;6.002;2024-03-22T08:19:54;9.80;99.90
55830;DHT22;41759;53.330;6.002;2024-03-22T08:22:20;9.80;99.90
55830;DHT22;41759;53.330;6.002;2024-03-22T08:24:45;10.10;99.90
55830;DHT22;41759;53.330;6.002;2024-03-22T08:27:11;9.80;99.90
55830;DHT22;41759;53.330;6.002;2024-03-22T08:29:38;9.80;99.90
55830;DHT22;41759;53.330;6.002;2024-03-22T08:32:04;9.80;99.90
55830;DHT22;41759;53.330;6.002;2024-03-22T08:34:33;9.80;99.90
55830;DHT22;41759;53.330;6.002;2024-03-22T08:36:59;9.80;99.90
55830;DHT22;41759;53.330;6.002;2024-03-22T08:39:24;9.80;99.90
55830;DHT22;41759;53.330;6.002;2024-03-22T08:41:51;9.80;99.90
55830;DHT22;41759;53.330;6.002;2024-03-22T08:44:17;9.80;99.90
55830;DHT22;41759;53.330;6.002;2024-03-22T08:46:43;9.80;99.90
55830;DHT22;41759;53.330;6.002;2024-03-22T08:49:09;9.80;99.90
55830;DHT22;41759;53.330;6.002;2024-03-22T08:51:34;9.80;99.90
55830;DHT22;41759;53.330;6.002;2024-03-22T08:54:00;9.80;99.90
55830;DHT22;41759;53.330;6.002;2024-03-22T08:56:26;9.80;99.90
55830;DHT22;41759;53.330;6.002;2024-03-22T08:58:52;9.70;99.90
55830;DHT22;41759;53.330;6.002;2024-03-22T09:01:18;9.80;99.90
55830;DHT22;41759;53.330;6.002;2024-03-22T09:03:44;9.70;99.90
55830;DHT22;41759;53.330;6.002;2024-03-22T09:06:15;9.70;99.90
55830;DHT22;41759;53.330;6.002;2024-03-22T09:08:41;9.70;99.90
55830;DHT22;41759;53.330;6.002;2024-03-22T09:11:06;9.80;99.90
55830;DHT22;41759;53.330;6.002;2024-03-22T09:13:32;9.80;99.90
55830;DHT22;41759;53.330;6.002;2024-03-22T09:16:00;9.80;99.90
55830;DHT22;41759;53.330;6.002;2024-03-22T09:18:26;9.80;99.90
55830;DHT22;41759;53.330;6.002;2024-03-22T09:20:53;9.80;99.90
55830;DHT22;41759;53.330;6.002;2024-03-22T09:23:19;9.80;99.90
55830;DHT22;41759;53.330;6.002;2024-03-22T09:25:46;9.90;99.90
55830;DHT22;41759;53.330;6.002;2024-03-22T09:28:15;9.80;99.90
55830;DHT22;41759;53.330;6.002;2024-03-22T09:30:41;9.90;99.90
55830;DHT22;41759;53.330;6.002;2024-03-22T09:33:08;9.80;99.90
55830;DHT22;41759;53.330;6.002;2024-03-22T09:35:34;9.90;99.90
55830;DHT22;41759;53.330;6.002;2024-03-22T09:38:01;9.90;99.90
55830;DHT22;41759;53.330;6.002;2024-03-22T09:40:27;9.90;99.90
55830;DHT22;41759;53.330;6.002;2024-03-22T09:42:53;9.90;99.90
55830;DHT22;41759;53.330;6.002;2024-03-22T09:45:21;9.90;99.90
55830;DHT22;41759;53.330;6.002;2024-03-22T09:47:48;9.90;99.90
55830;DHT22;41759;53.330;6.002;2024-03-22T09:50:15;10.00;99.90
55830;DHT22;41759;53.330;6.002;2024-03-22T09:52:41;10.00;99.90
55830;DHT22;41759;53.330;6.002;2024-03-22T09:55:08;10.00;99.90
55830;DHT22;41759;53.330;6.002;2024-03-22T09:57:40;10.00;99.90
55830;DHT22;41759;53.330;6.002;2024-03-22T10:00:08;10.00;99.90
55830;DHT22;41759;53.330;6.002;2024-03-22T10:02:35;10.00;99.90
55830;DHT22;41759;53.330;6.002;2024-03-22T10:05:01;9.20;99.90
55830;DHT22;41759;53.330;6.002;2024-03-22T10:07:30;10.00;99.90
55830;DHT22;41759;53.330;6.002;2024-03-22T10:09:59;10.00;99.90
55830;DHT22;41759;53.330;6.002;2024-03-22T10:12:25;10.00;99.90
55830;DHT22;41759;53.330;6.002;2024-03-22T10:14:53;10.00;99.90
55830;DHT22;41759;53.330;6.002;2024-03-22T10:17:19;9.20;99.90
55830;DHT22;41759;53.330;6.002;2024-03-22T10:19:45;10.10;99.90
55830;DHT22;41759;53.330;6.002;2024-03-22T10:22:16;10.20;99.90
55830;DHT22;41759;53.330;6.002;2024-03-22T10:24:44;10.20;99.90
55830;DHT22;41759;53.330;6.002;2024-03-22T10:27:10;10.20;99.90
55830;DHT22;41759;53.330;6.002;2024-03-22T10:29:36;10.20;99.90
55830;DHT22;41759;53.330;6.002;2024-03-22T10:32:02;10.20;99.90
55830;DHT22;41759;53.330;6.002;2024-03-22T10:34:29;10.20;99.90
55830;DHT22;41759;53.330;6.002;2024-03-22T10:37:00;10.20;99.90
55830;DHT22;41759;53.330;6.002;2024-03-22T10:39:26;10.20;99.90
55830;DHT22;41759;53.330;6.002;2024-03-22T10:41:53;10.20;99.90
55830;DHT22;41759;53.330;6.002;2024-03-22T10:44:19;10.20;99.90
55830;DHT22;41759;53.330;6.002;2024-03-22T10:46:46;10.20;99.90
55830;DHT22;41759;53.330;6.002;2024-03-22T10:49:16;10.20;99.90
55830;DHT22;41759;53.330;6.002;2024-03-22T10:51:45;10.20;99.90
55830;DHT22;41759;53.330;6.002;2024-03-22T10:54:14;10.10;99.90
55830;DHT22;41759;53.330;6.002;2024-03-22T10:56:43;10.10;99.90
55830;DHT22;41759;53.330;6.002;2024-03-22T10:59:09;10.00;99.90
55830;DHT22;41759;53.330;6.002;2024-03-22T11:01:38;10.00;99.90
55830;DHT22;41759;53.330;6.002;2024-03-22T11:04:04;10.00;99.90
55830;DHT22;41759;53.330;6.002;2024-03-22T11:06:32;10.00;99.90
55830;DHT22;41759;53.330;6.002;2024-03-22T11:08:59;10.20;99.90
55830;DHT22;41759;53.330;6.002;2024-03-22T11:11:28;10.00;99.90
55830;DHT22;41759;53.330;6.002;2024-03-22T11:13:54;10.00;99.90
55830;DHT22;41759;53.330;6.002;2024-03-22T11:16:21;10.00;99.90
55830;DHT22;41759;53.330;6.002;2024-03-22T11:18:47;10.10;99.90
55830;DHT22;41759;53.330;6.002;2024-03-22T11:21:14;10.10;99.90
55830;DHT22;41759;53.330;6.002;2024-03-22T11:23:40;10.40;99.90
55830;DHT22;41759;53.330;6.002;2024-03-22T11:26:06;10.20;99.90
55830;DHT22;41759;53.330;6.002;2024-03-22T11:28:36;10.20;99.90
55830;DHT22;41759;53.330;6.002;2024-03-22T11:31:01;10.20;99.90
55830;DHT22;41759;53.330;6.002;2024-03-22T11:33:27;10.20;99.90
55830;DHT22;41759;53.330;6.002;2024-03-22T11:35:53;10.30;99.90
55830;DHT22;41759;53.330;6.002;2024-03-22T11:38:19;10.50;99.90
55830;DHT22;41759;53.330;6.002;2024-03-22T11:40:45;10.50;99.90
55830;DHT22;41759;53.330;6.002;2024-03-22T11:43:11;10.70;99.90
55830;DHT22;41759;53.330;6.002;2024-03-22T11:45:41;10.60;99.90
55830;DHT22;41759;53.330;6.002;2024-03-22T11:48:09;10.60;99.90
55830;DHT22;41759;53.330;6.002;2024-03-22T11:50:37;10.60;99.90
55830;DHT22;41759;53.330;6.002;2024-03-22T11:53:05;10.70;99.90
55830;DHT22;41759;53.330;6.002;2024-03-22T11:55:31;10.80;99.90
55830;DHT22;41759;53.330;6.002;2024-03-22T11:58:00;10.80;99.90
55830;DHT22;41759;53.330;6.002;2024-03-22T12:00:26;10.80;99.90
55830;DHT22;41759;53.330;6.002;2024-03-22T12:02:53;10.80;99.90
55830;DHT22;41759;53.330;6.002;2024-03-22T12:05:20;10.90;99.90
55830;DHT22;41759;53.330;6.002;2024-03-22T12:07:45;10.80;99.90
55830;DHT22;41759;53.330;6.002;2024-03-22T12:10:11;10.90;99.90
55830;DHT22;41759;53.330;6.002;2024-03-22T12:12:37;10.90;99.90
55830;DHT22;41759;53.330;6.002;2024-03-22T12:15:05;10.90;99.90
55830;DHT22;41759;53.330;6.002;2024-03-22T12:17:31;10.90;99.90
55830;DHT22;41759;53.330;6.002;2024-03-22T12:19:57;10.90;99.90
55830;DHT22;41759;53.330;6.002;2024-03-22T12:22:22;11.00;99.90
55830;DHT22;41759;53.330;6.002;2024-03-22T12:24:51;10.90;99.90
55830;DHT22;41759;53.330;6.002;2024-03-22T12:27:16;10.80;99.90
55830;DHT22;41759;53.330;6.002;2024-03-22T12:29:42;10.90;99.90
55830;DHT22;41759;53.330;6.002;2024-03-22T12:32:08;10.90;99.90
55830;DHT22;41759;53.330;6.002;2024-03-22T12:34:33;11.00;99.90
55830;DHT22;41759;53.330;6.002;2024-03-22T12:37:00;11.10;99.90
55830;DHT22;41759;53.330;6.002;2024-03-22T12:39:25;11.10;99.90
55830;DHT22;41759;53.330;6.002;2024-03-22T12:41:51;11.10;99.90
55830;DHT22;41759;53.330;6.002;2024-03-22T12:44:17;11.10;99.90
55830;DHT22;41759;53.330;6.002;2024-03-22T12:46:43;11.00;99.90
55830;DHT22;41759;53.330;6.002;2024-03-22T12:49:10;11.00;99.90
55830;DHT22;41759;53.330;6.002;2024-03-22T12:51:36;10.80;99.90
55830;DHT22;41759;53.330;6.002;2024-03-22T12:54:02;10.70;99.90
55830;DHT22;41759;53.330;6.002;2024-03-22T12:56:29;10.60;99.90
55830;DHT22;41759;53.330;6.002;2024-03-22T12:58:55;10.60;99.90
55830;DHT22;41759;53.330;6.002;2024-03-22T13:01:21;10.60;99.90
55830;DHT22;41759;53.330;6.002;2024-03-22T13:03:47;10.50;99.90
55830;DHT22;41759;53.330;6.002;2024-03-22T13:06:13;10.50;99.90
55830;DHT22;41759;53.330;6.002;2024-03-22T13:08:39;10.50;99.90
55830;DHT22;41759;53.330;6.002;2024-03-22T13:11:05;10.60;99.90
55830;DHT22;41759;53.330;6.002;2024-03-22T13:13:34;10.60;99.90
55830;DHT22;41759;53.330;6.002;2024-03-22T13:16:00;10.60;99.90
55830;DHT22;41759;53.330;6.002;2024-03-22T13:18:28;10.50;99.90
55830;DHT22;41759;53.330;6.002;2024-03-22T13:20:54;10.50;99.90
55830;DHT22;41759;53.330;6.002;2024-03-22T13:23:20;10.50;99.90
55830;DHT22;41759;53.330;6.002;2024-03-22T13:25:46;10.50;99.90
55830;DHT22;41759;53.330;6.002;2024-03-22T13:28:12;10.90;99.90
55830;DHT22;41759;53.330;6.002;2024-03-22T13:30:37;11.10;99.90
55830;DHT22;41759;53.330;6.002;2024-03-22T13:33:03;10.20;99.90
55830;DHT22;41759;53.330;6.002;2024-03-22T13:35:29;10.20;99.90
55830;DHT22;41759;53.330;6.002;2024-03-22T13:37:56;10.20;99.90
55830;DHT22;41759;53.330;6.002;2024-03-22T13:40:21;10.20;99.90
55830;DHT22;41759;53.330;6.002;2024-03-22T13:42:47;10.50;99.90
55830;DHT22;41759;53.330;6.002;2024-03-22T13:45:13;10.20;99.90
55830;DHT22;41759;53.330;6.002;2024-03-22T13:47:38;10.20;99.90
55830;DHT22;41759;53.330;6.002;2024-03-22T13:50:07;10.20;99.90
55830;DHT22;41759;53.330;6.002;2024-03-22T13:52:35;10.20;99.90
55830;DHT22;41759;53.330;6.002;2024-03-22T13:55:02;10.20;99.90
55830;DHT22;41759;53.330;6.002;2024-03-22T13:57:27;10.30;99.90
55830;DHT22;41759;53.330;6.002;2024-03-22T13:59:53;10.30;99.90
55830;DHT22;41759;53.330;6.002;2024-03-22T14:02:19;10.30;99.90
55830;DHT22;41759;53.330;6.002;2024-03-22T14:04:45;10.30;99.90
55830;DHT22;41759;53.330;6.002;2024-03-22T14:07:11;10.30;99.90
55830;DHT22;41759;53.330;6.002;2024-03-22T14:09:37;10.20;99.90
55830;DHT22;41759;53.330;6.002;2024-03-22T14:12:03;10.30;99.90
55830;DHT22;41759;53.330;6.002;2024-03-22T14:14:29;10.30;99.90
55830;DHT22;41759;53.330;6.002;2024-03-22T14:16:55;10.40;99.90
55830;DHT22;41759;53.330;6.002;2024-03-22T14:19:21;10.40;99.90
55830;DHT22;41759;53.330;6.002;2024-03-22T14:21:46;10.40;99.90
55830;DHT22;41759;53.330;6.002;2024-03-22T14:24:13;10.40;99.90
55830;DHT22;41759;53.330;6.002;2024-03-22T14:26:39;10.40;99.90
55830;DHT22;41759;53.330;6.002;2024-03-22T14:29:14;10.30;99.90
55830;DHT22;41759;53.330;6.002;2024-03-22T14:31:39;10.30;99.90
55830;DHT22;41759;53.330;6.002;2024-03-22T14:34:08;10.80;99.90
55830;DHT22;41759;53.330;6.002;2024-03-22T14:36:34;10.30;99.90
55830;DHT22;41759;53.330;6.002;2024-03-22T14:39:00;10.40;99.90
55830;DHT22;41759;53.330;6.002;2024-03-22T14:41:27;10.30;99.90
55830;DHT22;41759;53.330;6.002;2024-03-22T14:43:53;10.30;99.90
55830;DHT22;41759;53.330;6.002;2024-03-22T14:46:20;10.30;99.90
55830;DHT22;41759;53.330;6.002;2024-03-22T14:48:50;10.40;99.90
55830;DHT22;41759;53.330;6.002;2024-03-22T14:51:16;10.30;99.90
55830;DHT22;41759;53.330;6.002;2024-03-22T14:53:42;10.30;99.90
55830;DHT22;41759;53.330;6.002;2024-03-22T14:56:07;10.20;99.90
55830;DHT22;41759;53.330;6.002;2024-03-22T14:58:37;10.20;99.90
55830;DHT22;41759;53.330;6.002;2024-03-22T15:01:06;10.10;99.90
55830;DHT22;41759;53.330;6.002;2024-03-22T15:03:32;10.10;99.90
55830;DHT22;41759;53.330;6.002;2024-03-22T15:05:59;10.10;99.90
55830;DHT22;41759;53.330;6.002;2024-03-22T15:08:26;10.20;99.90
55830;DHT22;41759;53.330;6.002;2024-03-22T15:10:52;10.20;99.90
55830;DHT22;41759;53.330;6.002;2024-03-22T15:13:18;10.80;99.90
55830;DHT22;41759;53.330;6.002;2024-03-22T15:15:58;10.40;99.90
55830;DHT22;41759;53.330;6.002;2024-03-22T15:18:25;10.40;99.90
55830;DHT22;41759;53.330;6.002;2024-03-22T15:20:52;10.30;99.90
55830;DHT22;41759;53.330;6.002;2024-03-22T15:23:18;10.30;99.90
55830;DHT22;41759;53.330;6.002;2024-03-22T15:25:45;10.30;99.90
55830;DHT22;41759;53.330;6.002;2024-03-22T15:28:12;10.30;99.90
55830;DHT22;41759;53.330;6.002;2024-03-22T15:30:39;10.30;99.90
55830;DHT22;41759;53.330;6.002;2024-03-22T15:33:05;10.20;99.90
55830;DHT22;41759;53.330;6.002;2024-03-22T15:35:31;10.10;99.90
55830;DHT22;41759;53.330;6.002;2024-03-22T15:37:57;11.50;99.90
55830;DHT22;41759;53.330;6.002;2024-03-22T15:40:23;10.00;99.90
55830;DHT22;41759;53.330;6.002;2024-03-22T15:42:49;10.00;99.90
55830;DHT22;41759;53.330;6.002;2024-03-22T15:45:15;10.00;99.90